createdAt,value
2023-04-22T00:00:09.450Z,100967.95
2023-04-22T00:02:59.424Z,100966.62
2023-04-22T00:05:27.585Z,100964.95
2023-04-22T00:07:55.551Z,100959.59
2023-04-22T00:10:23.557Z,100960.97
2023-04-22T00:12:51.484Z,100956.33
2023-04-22T00:15:21.784Z,100950.47
2023-04-22T00:17:49.733Z,100945.39
2023-04-22T00:20:19.072Z,100947.83
2023-04-22T00:22:47.277Z,100950.96
2023-04-22T00:25:16.329Z,100950.95
2023-04-22T00:27:45.273Z,100949.98
2023-04-22T00:30:13.601Z,100950.74
2023-04-22T00:32:41.704Z,100949.88
2023-04-22T00:35:09.748Z,100946.89
2023-04-22T00:37:37.695Z,100950.13
2023-04-22T00:40:07.065Z,100949.44
2023-04-22T00:42:36.955Z,100951.26
2023-04-22T00:45:09.722Z,100950.77
2023-04-22T00:47:38.393Z,100952.88
2023-04-22T00:50:07.559Z,100950.29
2023-04-22T00:52:35.446Z,100950.02
2023-04-22T00:55:04.045Z,100949.38
2023-04-22T00:57:33.313Z,100949.04
2023-04-22T01:00:01.949Z,100945.39
2023-04-22T01:02:29.901Z,100945.72
2023-04-22T01:05:00.194Z,100944.94
2023-04-22T01:07:28.637Z,100947.67
2023-04-22T01:09:57.359Z,100947.98
2023-04-22T01:12:25.284Z,100947.38
2023-04-22T01:14:53.256Z,100949.67
2023-04-22T01:17:22.171Z,100951.48
2023-04-22T01:19:50.470Z,100949.21
2023-04-22T01:22:19.140Z,100953.08
2023-04-22T01:24:47.220Z,100950.03
2023-04-22T01:27:15.210Z,100951.61
2023-04-22T01:29:43.765Z,100952.13
2023-04-22T01:32:12.094Z,100955.00
2023-04-22T01:34:39.928Z,100953.75
2023-04-22T01:37:07.852Z,100953.09
2023-04-22T01:39:36.024Z,100950.23
2023-04-22T01:42:04.498Z,100948.02
2023-04-22T01:44:32.394Z,100950.47
2023-04-22T01:47:00.413Z,100946.42
2023-04-22T01:49:28.949Z,100945.12
2023-04-22T01:51:58.568Z,100944.98
2023-04-22T01:54:26.534Z,100944.42
2023-04-22T01:56:55.410Z,100945.26
2023-04-22T01:59:23.558Z,100944.93
2023-04-22T02:01:51.583Z,100939.80
2023-04-22T02:04:20.221Z,100936.02
2023-04-22T02:06:48.133Z,100941.56
2023-04-22T02:09:16.307Z,100935.02
2023-04-22T02:11:44.884Z,100939.88
2023-04-22T02:14:13.146Z,100936.77
2023-04-22T02:16:41.756Z,100938.98
2023-04-22T02:19:10.107Z,100934.41
2023-04-22T02:21:38.042Z,100937.94
2023-04-22T02:24:06.579Z,100934.92
2023-04-22T02:26:34.370Z,100935.44
2023-04-22T02:29:02.799Z,100931.49
2023-04-22T02:31:31.419Z,100927.14
2023-04-22T02:33:59.746Z,100926.02
2023-04-22T02:36:28.852Z,100929.40
2023-04-22T02:38:56.905Z,100932.86
2023-04-22T02:41:24.702Z,100926.60
2023-04-22T02:43:52.774Z,100923.96
2023-04-22T02:46:20.869Z,100921.63
2023-04-22T02:48:49.553Z,100921.70
2023-04-22T02:51:17.435Z,100920.18
2023-04-22T02:53:45.494Z,100918.95
2023-04-22T02:56:13.686Z,100922.04
2023-04-22T02:58:41.724Z,100918.80
2023-04-22T03:01:09.807Z,100917.66
2023-04-22T03:03:38.462Z,100917.23
2023-04-22T03:06:07.225Z,100915.73
2023-04-22T03:08:35.110Z,100913.37
2023-04-22T03:11:03.159Z,100918.91
2023-04-22T03:13:31.259Z,100917.86
2023-04-22T03:15:59.235Z,100916.19
2023-04-22T03:18:27.269Z,100920.02
2023-04-22T03:20:55.563Z,100916.11
2023-04-22T03:23:24.326Z,100916.30
2023-04-22T03:25:52.314Z,100915.80
2023-04-22T03:28:20.467Z,100913.94
2023-04-22T03:30:48.690Z,100911.80
2023-04-22T03:33:16.805Z,100913.21
2023-04-22T03:35:55.230Z,100907.67
2023-04-22T03:38:23.412Z,100906.52
2023-04-22T03:40:52.246Z,100906.77
2023-04-22T03:43:37.216Z,100899.75
2023-04-22T03:46:08.893Z,100901.09
2023-04-22T03:48:41.029Z,100901.23
2023-04-22T03:51:17.328Z,100903.63
2023-04-22T03:53:45.333Z,100901.23
2023-04-22T03:56:17.206Z,100903.91
2023-04-22T03:58:46.699Z,100904.55
2023-04-22T04:01:14.747Z,100902.66
2023-04-22T04:03:44.703Z,100904.69
2023-04-22T04:06:13.386Z,100906.20
2023-04-22T04:08:41.267Z,100904.27
2023-04-22T04:11:10.860Z,100902.56
2023-04-22T04:13:39.132Z,100903.55
2023-04-22T04:16:27.193Z,100906.32
2023-04-22T04:19:00.448Z,100903.41
2023-04-22T04:21:29.595Z,100903.58
2023-04-22T04:23:57.481Z,100901.31
2023-04-22T04:26:28.162Z,100901.46
2023-04-22T04:29:02.194Z,100899.79
2023-04-22T04:31:30.129Z,100899.89
2023-04-22T04:33:59.111Z,100897.02
2023-04-22T04:36:29.372Z,100897.96
2023-04-22T04:39:03.011Z,100902.10
2023-04-22T04:41:33.378Z,100897.73
2023-04-22T04:44:02.026Z,100899.50
2023-04-22T04:46:34.835Z,100901.70
2023-04-22T04:49:04.857Z,100901.48
2023-04-22T04:51:35.701Z,100904.14
2023-04-22T04:54:03.615Z,100900.80
2023-04-22T04:56:36.324Z,100902.02
2023-04-22T04:59:04.743Z,100900.02
2023-04-22T05:01:35.346Z,100898.27
2023-04-22T05:04:07.427Z,100898.73
2023-04-22T05:06:35.898Z,100898.38
2023-04-22T05:09:05.753Z,100897.90
2023-04-22T05:11:33.949Z,100896.28
2023-04-22T05:14:03.296Z,100893.85
2023-04-22T05:16:34.854Z,100894.66
2023-04-22T05:19:03.352Z,100901.72
2023-04-22T05:21:31.659Z,100896.46
2023-04-22T05:23:59.921Z,100898.41
2023-04-22T05:26:27.885Z,100896.91
2023-04-22T05:28:55.981Z,100898.29
2023-04-22T05:31:24.077Z,100897.39
2023-04-22T05:33:52.689Z,100897.88
2023-04-22T05:36:24.207Z,100897.61
2023-04-22T05:38:52.177Z,100898.77
2023-04-22T05:41:20.708Z,100901.11
2023-04-22T05:43:51.284Z,100898.98
2023-04-22T05:46:19.392Z,100902.84
2023-04-22T05:48:48.863Z,100901.11
2023-04-22T05:51:35.491Z,100902.45
2023-04-22T05:54:03.591Z,100899.08
2023-04-22T05:56:31.967Z,100897.79
2023-04-22T05:58:59.837Z,100897.20
2023-04-22T06:01:28.110Z,100901.02
2023-04-22T06:04:10.509Z,100902.90
2023-04-22T06:06:38.867Z,100900.16
2023-04-22T06:09:07.446Z,100904.02
2023-04-22T06:11:35.789Z,100903.59
2023-04-22T06:14:03.726Z,100905.33
2023-04-22T06:16:32.143Z,100903.90
2023-04-22T06:19:01.014Z,100899.93
2023-04-22T06:21:28.964Z,100903.77
2023-04-22T06:23:57.637Z,100903.16
2023-04-22T06:26:26.898Z,100901.82
2023-04-22T06:28:54.764Z,100899.42
2023-04-22T06:31:22.924Z,100896.37
2023-04-22T06:33:51.013Z,100895.64
2023-04-22T06:36:19.235Z,100893.97
2023-04-22T06:38:51.642Z,100892.74
2023-04-22T06:41:28.043Z,100893.13
2023-04-22T06:43:59.823Z,100894.29
2023-04-22T06:47:03.612Z,100895.85
2023-04-22T06:49:57.882Z,100894.46
2023-04-22T06:52:37.567Z,100894.80
2023-04-22T06:55:06.015Z,100892.48
2023-04-22T06:57:33.960Z,100886.01
2023-04-22T07:00:02.913Z,100890.08
2023-04-22T07:02:32.244Z,100886.52
2023-04-22T07:05:01.183Z,100884.09
2023-04-22T07:07:29.114Z,100887.77
2023-04-22T07:09:56.937Z,100879.50
2023-04-22T07:12:28.059Z,100877.66
2023-04-22T07:14:56.313Z,100873.52
2023-04-22T07:17:24.265Z,100874.98
2023-04-22T07:19:52.106Z,100874.73
2023-04-22T07:22:20.060Z,100876.91
2023-04-22T07:24:47.965Z,100875.48
2023-04-22T07:27:16.522Z,100875.30
2023-04-22T07:29:44.368Z,100876.58
2023-04-22T07:32:12.328Z,100876.36
2023-04-22T07:34:40.431Z,100874.34
2023-04-22T07:37:09.663Z,100876.14
2023-04-22T07:39:38.064Z,100877.45
2023-04-22T07:42:07.420Z,100873.61
2023-04-22T07:44:36.499Z,100876.67
2023-04-22T07:47:07.825Z,100876.91
2023-04-22T07:49:35.822Z,100875.23
2023-04-22T07:52:03.738Z,100875.55
2023-04-22T07:54:31.668Z,100874.83
2023-04-22T07:56:59.479Z,100877.06
2023-04-22T07:59:27.663Z,100876.55
2023-04-22T08:01:55.683Z,100874.85
2023-04-22T08:04:24.003Z,100877.07
2023-04-22T08:06:52.225Z,100877.19
2023-04-22T08:09:20.294Z,100873.61
2023-04-22T08:11:48.182Z,100870.98
2023-04-22T08:14:16.178Z,100866.02
2023-04-22T08:16:44.169Z,100865.64
2023-04-22T08:19:12.128Z,100862.75
2023-04-22T08:21:39.974Z,100864.72
2023-04-22T08:24:08.041Z,100861.56
2023-04-22T08:26:37.718Z,100862.32
2023-04-22T08:29:05.638Z,100857.85
2023-04-22T08:31:34.766Z,100853.31
2023-04-22T08:34:02.674Z,100852.91
2023-04-22T08:36:31.976Z,100851.16
2023-04-22T08:39:00.699Z,100850.30
2023-04-22T08:41:29.187Z,100849.06
2023-04-22T08:43:57.450Z,100850.30
2023-04-22T08:46:25.937Z,100844.54
2023-04-22T08:48:54.581Z,100840.16
2023-04-22T08:51:22.620Z,100836.79
2023-04-22T08:53:50.831Z,100840.98
2023-04-22T08:56:19.009Z,100837.27
2023-04-22T08:58:47.576Z,100836.66
2023-04-22T09:01:18.046Z,100834.48
2023-04-22T09:03:48.648Z,100834.77
2023-04-22T09:06:17.615Z,100836.29
2023-04-22T09:08:47.554Z,100832.40
2023-04-22T09:11:15.617Z,100831.62
2023-04-22T09:13:43.511Z,100831.65
2023-04-22T09:16:11.531Z,100828.14
2023-04-22T09:18:43.724Z,100829.10
2023-04-22T09:21:12.543Z,100828.13
2023-04-22T09:23:50.989Z,100828.09
2023-04-22T09:26:21.869Z,100826.74
2023-04-22T09:28:58.855Z,100823.15
2023-04-22T09:31:28.401Z,100820.52
2023-04-22T09:33:59.198Z,100817.31
2023-04-22T09:36:29.019Z,100814.27
2023-04-22T09:39:04.819Z,100813.27
2023-04-22T09:41:39.460Z,100812.45
2023-04-22T09:44:27.634Z,100809.40
2023-04-22T09:46:55.821Z,100802.79
2023-04-22T09:49:23.761Z,100803.58
2023-04-22T09:51:57.040Z,100805.62
2023-04-22T09:54:24.984Z,100806.44
2023-04-22T09:56:53.894Z,100804.02
2023-04-22T09:59:24.336Z,100799.36
2023-04-22T10:01:55.399Z,100793.74
2023-04-22T10:04:25.149Z,100794.61
2023-04-22T10:06:54.255Z,100792.50
2023-04-22T10:09:24.410Z,100793.91
2023-04-22T10:11:54.516Z,100794.61
2023-04-22T10:14:23.162Z,100787.19
2023-04-22T10:16:56.633Z,100785.87
2023-04-22T10:19:26.937Z,100784.26
2023-04-22T10:21:58.701Z,100782.58
2023-04-22T10:24:28.578Z,100779.52
2023-04-22T10:27:02.914Z,100776.83
2023-04-22T10:29:43.565Z,100769.98
2023-04-22T10:32:17.610Z,100768.48
2023-04-22T10:34:50.119Z,100766.20
2023-04-22T10:37:19.625Z,100768.85
2023-04-22T10:40:17.634Z,100764.52
2023-04-22T10:42:55.599Z,100761.73
2023-04-22T10:45:25.583Z,100761.73
2023-04-22T10:47:53.472Z,100760.08
2023-04-22T10:50:27.014Z,100761.66
2023-04-22T10:53:00.202Z,100760.27
2023-04-22T10:55:51.875Z,100754.50
2023-04-22T10:58:22.185Z,100749.95
2023-04-22T11:00:58.231Z,100738.08
2023-04-22T11:03:30.468Z,100735.52
2023-04-22T11:06:19.064Z,100737.13
2023-04-22T11:08:49.013Z,100735.09
2023-04-22T11:11:18.787Z,100732.10
2023-04-22T11:13:51.093Z,100726.56
2023-04-22T11:16:22.487Z,100723.19
2023-04-22T11:18:50.981Z,100723.77
2023-04-22T11:21:20.654Z,100718.63
2023-04-22T11:23:53.127Z,100714.64
2023-04-22T11:26:35.037Z,100716.67
2023-04-22T11:29:03.265Z,100712.72
2023-04-22T11:31:31.206Z,100704.92
2023-04-22T11:34:00.616Z,100706.67
2023-04-22T11:36:28.523Z,100700.20
2023-04-22T11:38:57.055Z,100697.68
2023-04-22T11:41:24.951Z,100693.45
2023-04-22T11:43:54.887Z,100691.36
2023-04-22T11:46:31.499Z,100690.65
2023-04-22T11:49:20.117Z,100689.44
2023-04-22T11:51:57.701Z,100690.02
2023-04-22T11:54:36.444Z,100690.33
2023-04-22T11:57:09.367Z,100687.98
2023-04-22T11:59:37.547Z,100682.55
2023-04-22T12:02:07.129Z,100682.52
2023-04-22T12:04:39.174Z,100681.27
2023-04-22T12:07:07.429Z,100676.67
2023-04-22T12:09:35.363Z,100676.39
2023-04-22T12:12:04.693Z,100673.04
2023-04-22T12:14:36.016Z,100668.85
2023-04-22T12:17:05.846Z,100669.48
2023-04-22T12:19:33.830Z,100664.87
2023-04-22T12:22:02.256Z,100669.88
2023-04-22T12:24:31.152Z,100668.55
2023-04-22T12:26:58.977Z,100663.88
2023-04-22T12:29:34.098Z,100663.14
2023-04-22T12:32:01.976Z,100659.65
2023-04-22T12:34:29.921Z,100655.46
2023-04-22T12:36:58.978Z,100647.41
2023-04-22T12:39:26.936Z,100645.15
2023-04-22T12:41:54.764Z,100642.71
2023-04-22T12:44:24.908Z,100642.73
2023-04-22T12:46:53.530Z,100637.94
2023-04-22T12:49:21.708Z,100638.80
2023-04-22T12:51:49.640Z,100638.02
2023-04-22T12:54:19.408Z,100635.23
2023-04-22T12:56:48.169Z,100629.53
2023-04-22T12:59:16.256Z,100630.13
2023-04-22T13:01:44.536Z,100625.33
2023-04-22T13:04:12.601Z,100623.41
2023-04-22T13:06:44.109Z,100621.88
2023-04-22T13:09:13.154Z,100620.98
2023-04-22T13:11:41.315Z,100615.86
2023-04-22T13:14:10.025Z,100614.58
2023-04-22T13:16:38.047Z,100611.27
2023-04-22T13:19:06.062Z,100606.20
2023-04-22T13:21:33.945Z,100607.82
2023-04-22T13:24:01.798Z,100605.52
2023-04-22T13:26:30.231Z,100599.63
2023-04-22T13:28:58.169Z,100598.89
2023-04-22T13:31:26.109Z,100599.59
2023-04-22T13:33:55.440Z,100601.70
2023-04-22T13:36:23.494Z,100598.05
2023-04-22T13:38:51.453Z,100593.09
2023-04-22T13:41:19.305Z,100588.13
2023-04-22T13:43:51.945Z,100587.02
2023-04-22T13:46:20.969Z,100578.97
2023-04-22T13:48:48.881Z,100582.57
2023-04-22T13:51:16.765Z,100580.88
2023-04-22T13:53:45.219Z,100583.45
2023-04-22T13:56:13.213Z,100576.80
2023-04-22T13:58:42.568Z,100570.38
2023-04-22T14:01:10.494Z,100567.88
2023-04-22T14:03:38.626Z,100572.80
2023-04-22T14:06:07.022Z,100573.86
2023-04-22T14:08:34.900Z,100570.08
2023-04-22T14:11:03.614Z,100567.77
2023-04-22T14:13:31.460Z,100563.20
2023-04-22T14:16:00.038Z,100558.14
2023-04-22T14:18:27.857Z,100554.17
2023-04-22T14:20:56.131Z,100556.09
2023-04-22T14:23:23.977Z,100550.36
2023-04-22T14:25:51.973Z,100549.70
2023-04-22T14:28:19.912Z,100547.30
2023-04-22T14:30:47.895Z,100545.15
2023-04-22T14:33:15.970Z,100549.84
2023-04-22T14:35:43.881Z,100545.08
2023-04-22T14:38:12.736Z,100541.50
2023-04-22T14:40:40.774Z,100545.54
2023-04-22T14:43:08.814Z,100543.84
2023-04-22T14:45:36.776Z,100540.08
2023-04-22T14:48:04.721Z,100538.30
2023-04-22T14:50:34.170Z,100533.48
2023-04-22T14:53:02.589Z,100535.98
2023-04-22T14:55:31.642Z,100538.73
2023-04-22T14:57:59.607Z,100536.23
2023-04-22T15:00:27.980Z,100535.67
2023-04-22T15:02:56.334Z,100537.78
2023-04-22T15:05:24.572Z,100533.69
2023-04-22T15:07:52.776Z,100528.27
2023-04-22T15:10:21.011Z,100530.36
2023-04-22T15:12:49.057Z,100531.38
2023-04-22T15:15:18.396Z,100526.02
2023-04-22T15:17:46.475Z,100526.67
2023-04-22T15:20:14.705Z,100521.28
2023-04-22T15:22:44.433Z,100518.61
2023-04-22T15:25:12.656Z,100514.53
2023-04-22T15:27:41.309Z,100510.70
2023-04-22T15:30:11.139Z,100510.08
2023-04-22T15:32:39.314Z,100507.64
2023-04-22T15:35:08.125Z,100506.48
2023-04-22T15:37:36.089Z,100509.85
2023-04-22T15:40:06.927Z,100507.56
2023-04-22T15:42:34.934Z,100504.44
2023-04-22T15:45:04.041Z,100508.59
2023-04-22T15:47:34.846Z,100509.06
2023-04-22T15:50:06.842Z,100509.20
2023-04-22T15:52:37.539Z,100504.54
2023-04-22T15:55:07.796Z,100502.02
2023-04-22T15:57:36.097Z,100500.88
2023-04-22T16:00:12.369Z,100494.92
2023-04-22T16:02:44.702Z,100493.48
2023-04-22T16:05:14.295Z,100492.66
2023-04-22T16:07:42.469Z,100492.16
2023-04-22T16:10:10.791Z,100484.67
2023-04-22T16:12:38.692Z,100485.02
2023-04-22T16:15:07.595Z,100483.09
2023-04-22T16:17:36.504Z,100482.41
2023-04-22T16:20:08.519Z,100480.97
2023-04-22T16:22:37.245Z,100477.34
2023-04-22T16:25:05.835Z,100479.52
2023-04-22T16:27:33.761Z,100480.14
2023-04-22T16:30:02.076Z,100479.66
2023-04-22T16:32:30.060Z,100475.89
2023-04-22T16:34:58.051Z,100473.18
2023-04-22T16:37:27.171Z,100472.65
2023-04-22T16:39:55.540Z,100470.42
2023-04-22T16:42:23.563Z,100467.45
2023-04-22T16:44:51.594Z,100463.91
2023-04-22T16:47:20.048Z,100466.19
2023-04-22T16:49:47.986Z,100464.88
2023-04-22T16:52:16.070Z,100466.13
2023-04-22T16:54:43.999Z,100465.58
2023-04-22T16:57:11.960Z,100459.66
2023-04-22T16:59:40.117Z,100456.96
2023-04-22T17:02:08.730Z,100456.79
2023-04-22T17:04:36.724Z,100454.39
2023-04-22T17:07:04.993Z,100452.39
2023-04-22T17:09:33.252Z,100450.86
2023-04-22T17:12:01.736Z,100451.38
2023-04-22T17:14:29.825Z,100446.60
2023-04-22T17:16:57.888Z,100443.61
2023-04-22T17:19:25.849Z,100439.80
2023-04-22T17:21:53.735Z,100438.57
2023-04-22T17:24:22.474Z,100435.23
2023-04-22T17:26:50.717Z,100435.43
2023-04-22T17:29:21.810Z,100434.98
2023-04-22T17:31:50.709Z,100433.85
2023-04-22T17:34:18.985Z,100430.43
2023-04-22T17:36:46.991Z,100431.98
2023-04-22T17:39:15.484Z,100429.77
2023-04-22T17:41:44.090Z,100426.60
2023-04-22T17:44:12.395Z,100431.55
2023-04-22T17:46:41.637Z,100430.87
2023-04-22T17:49:09.924Z,100434.21
2023-04-22T17:51:37.832Z,100434.27
2023-04-22T17:54:06.435Z,100434.70
2023-04-22T17:56:34.493Z,100436.90
2023-04-22T17:59:02.465Z,100442.37
2023-04-22T18:01:30.639Z,100442.39
2023-04-22T18:03:59.000Z,100442.28
2023-04-22T18:06:29.023Z,100446.16
2023-04-22T18:08:56.955Z,100448.59
2023-04-22T18:11:25.141Z,100449.16
2023-04-22T18:13:53.031Z,100449.29
2023-04-22T18:16:21.546Z,100451.52
2023-04-22T18:18:49.367Z,100450.48
2023-04-22T18:21:17.479Z,100455.39
2023-04-22T18:23:45.400Z,100456.27
2023-04-22T18:26:13.295Z,100459.77
2023-04-22T18:28:43.558Z,100458.63
2023-04-22T18:31:11.918Z,100461.38
2023-04-22T18:33:39.797Z,100459.36
2023-04-22T18:36:07.796Z,100463.30
2023-04-22T18:38:35.659Z,100464.39
2023-04-22T18:41:03.641Z,100466.50
2023-04-22T18:43:31.589Z,100465.48
2023-04-22T18:45:59.462Z,100463.81
2023-04-22T18:48:27.400Z,100466.59
2023-04-22T18:50:55.544Z,100468.05
2023-04-22T18:53:23.506Z,100470.34
2023-04-22T18:55:51.312Z,100471.69
2023-04-22T18:58:21.679Z,100473.58
2023-04-22T19:00:50.655Z,100473.38
2023-04-22T19:03:19.737Z,100473.20
2023-04-22T19:05:48.354Z,100472.72
2023-04-22T19:08:16.183Z,100469.83
2023-04-22T19:10:44.108Z,100469.81
2023-04-22T19:13:18.897Z,100466.05
2023-04-22T19:15:57.889Z,100468.98
2023-04-22T19:18:26.614Z,100469.36
2023-04-22T19:20:54.720Z,100468.67
2023-04-22T19:23:22.743Z,100468.85
2023-04-22T19:25:50.668Z,100465.99
2023-04-22T19:28:19.182Z,100463.15
2023-04-22T19:30:47.137Z,100462.54
2023-04-22T19:33:15.569Z,100465.13
2023-04-22T19:35:43.441Z,100464.05
2023-04-22T19:38:12.277Z,100466.20
2023-04-22T19:40:40.241Z,100464.92
2023-04-22T19:43:08.434Z,100465.27
2023-04-22T19:45:36.247Z,100464.69
2023-04-22T19:48:04.472Z,100463.74
2023-04-22T19:50:34.465Z,100462.20
2023-04-22T19:53:05.583Z,100466.50
2023-04-22T19:55:34.053Z,100459.76
2023-04-22T19:58:03.150Z,100457.70
2023-04-22T20:00:35.447Z,100460.26
2023-04-22T20:03:04.404Z,100457.44
2023-04-22T20:05:33.108Z,100456.81
2023-04-22T20:08:01.963Z,100457.49
2023-04-22T20:10:31.329Z,100453.35
2023-04-22T20:13:00.164Z,100459.95
2023-04-22T20:15:28.229Z,100455.00
2023-04-22T20:17:56.407Z,100452.09
2023-04-22T20:20:24.631Z,100452.53
2023-04-22T20:22:54.885Z,100450.17
2023-04-22T20:25:23.378Z,100448.41
2023-04-22T20:27:51.602Z,100448.66
2023-04-22T20:30:19.640Z,100446.95
2023-04-22T20:32:47.590Z,100446.20
2023-04-22T20:35:16.677Z,100450.98
2023-04-22T20:37:46.614Z,100449.69
2023-04-22T20:40:15.357Z,100451.17
2023-04-22T20:42:43.321Z,100456.09
2023-04-22T20:45:15.991Z,100456.96
2023-04-22T20:47:44.641Z,100456.06
2023-04-22T20:50:13.472Z,100456.56
2023-04-22T20:52:41.474Z,100457.80
2023-04-22T20:55:09.716Z,100457.67
2023-04-22T20:57:37.783Z,100455.59
2023-04-22T21:00:10.407Z,100453.38
2023-04-22T21:02:40.236Z,100454.48
2023-04-22T21:05:11.300Z,100450.67
2023-04-22T21:07:39.847Z,100452.20
2023-04-22T21:10:08.888Z,100449.45
2023-04-22T21:12:38.203Z,100452.07
2023-04-22T21:15:07.255Z,100451.81
2023-04-22T21:17:37.970Z,100450.77
2023-04-22T21:20:09.217Z,100452.34
2023-04-22T21:22:37.899Z,100451.73
2023-04-22T21:25:07.332Z,100454.07
2023-04-22T21:27:35.447Z,100452.14
2023-04-22T21:30:03.836Z,100452.02
2023-04-22T21:32:32.915Z,100447.39
2023-04-22T21:35:01.245Z,100452.98
2023-04-22T21:37:29.232Z,100450.11
2023-04-22T21:39:57.103Z,100446.16
2023-04-22T21:42:25.037Z,100446.35
2023-04-22T21:44:53.012Z,100445.02
2023-04-22T21:47:20.920Z,100446.77
2023-04-22T21:49:48.799Z,100441.21
2023-04-22T21:52:16.941Z,100445.27
2023-04-22T21:54:45.288Z,100445.09
2023-04-22T21:57:13.309Z,100441.77
2023-04-22T21:59:41.245Z,100444.60
2023-04-22T22:02:09.153Z,100442.92
2023-04-22T22:04:37.256Z,100439.88
2023-04-22T22:07:05.398Z,100444.42
2023-04-22T22:09:33.662Z,100446.93
2023-04-22T22:12:01.999Z,100445.02
2023-04-22T22:14:29.900Z,100447.27
2023-04-22T22:16:57.856Z,100444.73
2023-04-22T22:19:27.968Z,100445.29
2023-04-22T22:21:56.300Z,100444.73
2023-04-22T22:24:24.503Z,100445.92
2023-04-22T22:26:52.451Z,100444.11
2023-04-22T22:29:20.309Z,100443.48
2023-04-22T22:31:48.218Z,100440.75
2023-04-22T22:34:16.157Z,100440.44
2023-04-22T22:36:44.083Z,100442.02
2023-04-22T22:39:14.463Z,100436.20
2023-04-22T22:41:43.909Z,100437.40
2023-04-22T22:44:12.351Z,100435.94
2023-04-22T22:46:40.807Z,100432.30
2023-04-22T22:49:09.948Z,100432.76
2023-04-22T22:51:38.048Z,100431.19
2023-04-22T22:54:06.860Z,100430.71
2023-04-22T22:56:34.779Z,100427.91
2023-04-22T22:59:02.789Z,100425.66
2023-04-22T23:01:31.027Z,100427.87
2023-04-22T23:03:59.206Z,100427.39
2023-04-22T23:06:27.399Z,100427.27
2023-04-22T23:08:55.503Z,100424.80
2023-04-22T23:11:23.756Z,100426.75
2023-04-22T23:13:51.769Z,100425.85
2023-04-22T23:16:19.769Z,100418.41
2023-04-22T23:18:48.416Z,100418.83
2023-04-22T23:21:17.171Z,100419.81
2023-04-22T23:23:45.403Z,100421.75
2023-04-22T23:26:13.558Z,100419.94
2023-04-22T23:28:41.917Z,100419.65
2023-04-22T23:31:10.775Z,100416.36
2023-04-22T23:33:41.655Z,100416.97
2023-04-22T23:36:12.776Z,100410.20
2023-04-22T23:38:41.105Z,100410.25
2023-04-22T23:41:11.286Z,100408.27
2023-04-22T23:43:39.152Z,100406.69
2023-04-22T23:46:07.073Z,100404.27
2023-04-22T23:48:35.051Z,100405.95
2023-04-22T23:51:03.015Z,100400.38
2023-04-22T23:53:30.957Z,100397.05
2023-04-22T23:55:59.071Z,100395.70
2023-04-22T23:58:27.109Z,100392.96
